sensor_id;sensor_type;location;lat;lon;timestamp;pressure;altitude;pressure_sealevel;temperature
43292;BMP280;28754;47.700;7.924;2023-05-14T00:00:12;91301.72;;;10.19
43292;BMP280;28754;47.700;7.924;2023-05-14T00:03:00;91316.78;;;10.30
43292;BMP280;28754;47.700;7.924;2023-05-14T00:05:50;91307.59;;;10.34
43292;BMP280;28754;47.700;7.924;2023-05-14T00:08:38;91304.53;;;10.37
43292;BMP280;28754;47.700;7.924;2023-05-14T00:11:25;91287.59;;;10.56
43292;BMP280;28754;47.700;7.924;2023-05-14T00:14:13;91289.38;;;10.61
43292;BMP280;28754;47.700;7.924;2023-05-14T00:17:00;91280.44;;;10.63
43292;BMP280;28754;47.700;7.924;2023-05-14T00:19:47;91278.38;;;10.60
43292;BMP280;28754;47.700;7.924;2023-05-14T00:22:35;91286.59;;;10.57
43292;BMP280;28754;47.700;7.924;2023-05-14T00:25:23;91277.09;;;10.58
43292;BMP280;28754;47.700;7.924;2023-05-14T00:28:10;91265.59;;;10.55
43292;BMP280;28754;47.700;7.924;2023-05-14T00:30:57;91268.16;;;10.50
43292;BMP280;28754;47.700;7.924;2023-05-14T00:33:44;91276.84;;;10.49
43292;BMP280;28754;47.700;7.924;2023-05-14T00:36:31;91277.16;;;10.38
43292;BMP280;28754;47.700;7.924;2023-05-14T00:39:18;91291.22;;;10.30
43292;BMP280;28754;47.700;7.924;2023-05-14T00:42:05;91281.50;;;10.18
43292;BMP280;28754;47.700;7.924;2023-05-14T00:44:52;91290.19;;;10.07
43292;BMP280;28754;47.700;7.924;2023-05-14T00:47:39;91282.00;;;10.05
43292;BMP280;28754;47.700;7.924;2023-05-14T00:50:26;91271.53;;;9.96
43292;BMP280;28754;47.700;7.924;2023-05-14T00:53:23;91284.06;;;10.03
43292;BMP280;28754;47.700;7.924;2023-05-14T00:56:19;91278.69;;;9.99
43292;BMP280;28754;47.700;7.924;2023-05-14T00:59:07;91270.50;;;9.97
43292;BMP280;28754;47.700;7.924;2023-05-14T01:01:54;91282.50;;;10.07
43292;BMP280;28754;47.700;7.924;2023-05-14T01:04:41;91280.22;;;10.05
43292;BMP280;28754;47.700;7.924;2023-05-14T01:08:12;91283.28;;;10.17
43292;BMP280;28754;47.700;7.924;2023-05-14T01:11:17;91273.81;;;10.27
43292;BMP280;28754;47.700;7.924;2023-05-14T01:17:25;91274.78;;;10.56
43292;BMP280;28754;47.700;7.924;2023-05-14T01:20:14;91265.84;;;10.59
43292;BMP280;28754;47.700;7.924;2023-05-14T01:23:01;91272.47;;;10.64
43292;BMP280;28754;47.700;7.924;2023-05-14T01:25:48;91271.97;;;10.67
43292;BMP280;28754;47.700;7.924;2023-05-14T01:28:36;91267.34;;;10.74
43292;BMP280;28754;47.700;7.924;2023-05-14T01:31:25;91268.09;;;10.75
43292;BMP280;28754;47.700;7.924;2023-05-14T01:34:19;91270.91;;;10.73
43292;BMP280;28754;47.700;7.924;2023-05-14T01:37:08;91267.59;;;10.73
43292;BMP280;28754;47.700;7.924;2023-05-14T01:39:57;91273.22;;;10.75
43292;BMP280;28754;47.700;7.924;2023-05-14T01:42:45;91264.53;;;10.76
43292;BMP280;28754;47.700;7.924;2023-05-14T01:45:35;91267.59;;;10.73
43292;BMP280;28754;47.700;7.924;2023-05-14T01:48:22;91265.78;;;10.73
43292;BMP280;28754;47.700;7.924;2023-05-14T01:51:09;91262.50;;;10.68
43292;BMP280;28754;47.700;7.924;2023-05-14T01:53:55;91265.06;;;10.68
43292;BMP280;28754;47.700;7.924;2023-05-14T01:56:42;91267.09;;;10.66
43292;BMP280;28754;47.700;7.924;2023-05-14T01:59:29;91262.50;;;10.68
43292;BMP280;28754;47.700;7.924;2023-05-14T02:02:27;91254.56;;;10.64
43292;BMP280;28754;47.700;7.924;2023-05-14T02:05:29;91241.00;;;10.54
43292;BMP280;28754;47.700;7.924;2023-05-14T02:08:19;91247.66;;;10.65
43292;BMP280;28754;47.700;7.924;2023-05-14T02:11:08;91257.63;;;10.66
43292;BMP280;28754;47.700;7.924;2023-05-14T02:13:57;91255.31;;;10.70
43292;BMP280;28754;47.700;7.924;2023-05-14T02:16:50;91238.91;;;10.76
43292;BMP280;28754;47.700;7.924;2023-05-14T02:19:45;91243.78;;;10.82
43292;BMP280;28754;47.700;7.924;2023-05-14T02:22:32;91236.31;;;10.91
43292;BMP280;28754;47.700;7.924;2023-05-14T02:25:22;91229.09;;;10.93
43292;BMP280;28754;47.700;7.924;2023-05-14T02:28:31;91237.81;;;11.01
43292;BMP280;28754;47.700;7.924;2023-05-14T02:32:06;91232.91;;;11.05
43292;BMP280;28754;47.700;7.924;2023-05-14T02:34:57;91237.75;;;11.11
43292;BMP280;28754;47.700;7.924;2023-05-14T02:37:47;91237.50;;;11.13
43292;BMP280;28754;47.700;7.924;2023-05-14T02:40:36;91233.63;;;11.15
43292;BMP280;28754;47.700;7.924;2023-05-14T02:43:24;91230.56;;;11.13
43292;BMP280;28754;47.700;7.924;2023-05-14T02:46:13;91224.13;;;11.16
43292;BMP280;28754;47.700;7.924;2023-05-14T02:49:03;91227.47;;;11.21
43292;BMP280;28754;47.700;7.924;2023-05-14T02:51:50;91226.91;;;11.24
43292;BMP280;28754;47.700;7.924;2023-05-14T02:54:37;91234.81;;;11.32
43292;BMP280;28754;47.700;7.924;2023-05-14T02:57:25;91229.94;;;11.36
43292;BMP280;28754;47.700;7.924;2023-05-14T03:00:13;91226.38;;;11.32
43292;BMP280;28754;47.700;7.924;2023-05-14T03:03:00;91226.34;;;11.37
43292;BMP280;28754;47.700;7.924;2023-05-14T03:05:49;91225.59;;;11.36
43292;BMP280;28754;47.700;7.924;2023-05-14T03:08:36;91222.81;;;11.28
43292;BMP280;28754;47.700;7.924;2023-05-14T03:11:24;91223.56;;;11.29
43292;BMP280;28754;47.700;7.924;2023-05-14T03:14:11;91237.66;;;11.31
43292;BMP280;28754;47.700;7.924;2023-05-14T03:16:58;91217.13;;;11.31
43292;BMP280;28754;47.700;7.924;2023-05-14T03:19:45;91206.41;;;11.24
43292;BMP280;28754;47.700;7.924;2023-05-14T03:22:32;91220.78;;;11.25
43292;BMP280;28754;47.700;7.924;2023-05-14T03:25:19;91225.88;;;11.30
43292;BMP280;28754;47.700;7.924;2023-05-14T03:28:06;91221.53;;;11.26
43292;BMP280;28754;47.700;7.924;2023-05-14T03:30:53;91215.66;;;11.25
43292;BMP280;28754;47.700;7.924;2023-05-14T03:33:44;91211.78;;;11.28
43292;BMP280;28754;47.700;7.924;2023-05-14T03:36:31;91229.69;;;11.32
43292;BMP280;28754;47.700;7.924;2023-05-14T03:39:18;91217.13;;;11.31
43292;BMP280;28754;47.700;7.924;2023-05-14T03:42:05;91221.00;;;11.33
43292;BMP280;28754;47.700;7.924;2023-05-14T03:44:52;91231.25;;;11.33
43292;BMP280;28754;47.700;7.924;2023-05-14T03:47:40;91223.84;;;11.27
43292;BMP280;28754;47.700;7.924;2023-05-14T03:50:26;91222.81;;;11.28
43292;BMP280;28754;47.700;7.924;2023-05-14T03:53:13;91234.81;;;11.32
43292;BMP280;28754;47.700;7.924;2023-05-14T03:56:00;91232.00;;;11.34
43292;BMP280;28754;47.700;7.924;2023-05-14T03:58:46;91219.69;;;11.31
43292;BMP280;28754;47.700;7.924;2023-05-14T04:01:34;91223.81;;;11.32
43292;BMP280;28754;47.700;7.924;2023-05-14T04:04:21;91226.16;;;11.24
43292;BMP280;28754;47.700;7.924;2023-05-14T04:07:08;91223.59;;;11.24
43292;BMP280;28754;47.700;7.924;2023-05-14T04:09:55;91230.25;;;11.25
43292;BMP280;28754;47.700;7.924;2023-05-14T04:12:42;91230.00;;;11.26
43292;BMP280;28754;47.700;7.924;2023-05-14T04:15:29;91240.72;;;11.33
43292;BMP280;28754;47.700;7.924;2023-05-14T04:18:15;91234.81;;;11.32
43292;BMP280;28754;47.700;7.924;2023-05-14T04:21:03;91229.44;;;11.34
43292;BMP280;28754;47.700;7.924;2023-05-14T04:23:55;91227.13;;;11.32
43292;BMP280;28754;47.700;7.924;2023-05-14T04:26:44;91221.22;;;11.37
43292;BMP280;28754;47.700;7.924;2023-05-14T04:29:31;91223.75;;;11.42
43292;BMP280;28754;47.700;7.924;2023-05-14T04:32:18;91221.47;;;11.45
43292;BMP280;28754;47.700;7.924;2023-05-14T04:35:05;91229.69;;;11.42
43292;BMP280;28754;47.700;7.924;2023-05-14T04:37:52;91226.09;;;11.43
43292;BMP280;28754;47.700;7.924;2023-05-14T04:40:40;91222.22;;;11.46
43292;BMP280;28754;47.700;7.924;2023-05-14T04:43:29;91224.03;;;11.45
43292;BMP280;28754;47.700;7.924;2023-05-14T04:46:16;91207.88;;;11.45
43292;BMP280;28754;47.700;7.924;2023-05-14T04:49:03;91224.78;;;11.46
43292;BMP280;28754;47.700;7.924;2023-05-14T04:51:49;91219.16;;;11.44
43292;BMP280;28754;47.700;7.924;2023-05-14T04:54:36;91215.56;;;11.45
43292;BMP280;28754;47.700;7.924;2023-05-14T04:57:23;91220.19;;;11.43
43292;BMP280;28754;47.700;7.924;2023-05-14T05:00:10;91211.47;;;11.44
43292;BMP280;28754;47.700;7.924;2023-05-14T05:02:57;91219.94;;;11.44
43292;BMP280;28754;47.700;7.924;2023-05-14T05:05:44;91213.00;;;11.45
43292;BMP280;28754;47.700;7.924;2023-05-14T05:08:33;91219.66;;;11.46
43292;BMP280;28754;47.700;7.924;2023-05-14T05:11:26;91224.53;;;11.47
43292;BMP280;28754;47.700;7.924;2023-05-14T05:14:13;91225.78;;;11.50
43292;BMP280;28754;47.700;7.924;2023-05-14T05:17:00;91225.03;;;11.49
43292;BMP280;28754;47.700;7.924;2023-05-14T05:19:47;91223.47;;;11.53
43292;BMP280;28754;47.700;7.924;2023-05-14T05:22:33;91233.72;;;11.53
43292;BMP280;28754;47.700;7.924;2023-05-14T05:25:23;91233.47;;;11.50
43292;BMP280;28754;47.700;7.924;2023-05-14T05:28:10;91231.47;;;11.47
43292;BMP280;28754;47.700;7.924;2023-05-14T05:30:58;91235.56;;;11.43
43292;BMP280;28754;47.700;7.924;2023-05-14T05:33:45;91230.44;;;11.43
43292;BMP280;28754;47.700;7.924;2023-05-14T05:36:35;91223.25;;;11.40
43292;BMP280;28754;47.700;7.924;2023-05-14T05:39:22;91220.69;;;11.40
43292;BMP280;28754;47.700;7.924;2023-05-14T05:42:09;91224.56;;;11.42
43292;BMP280;28754;47.700;7.924;2023-05-14T05:44:56;91226.03;;;11.53
43292;BMP280;28754;47.700;7.924;2023-05-14T05:47:43;91229.31;;;11.59
43292;BMP280;28754;47.700;7.924;2023-05-14T05:50:29;91228.81;;;11.62
43292;BMP280;28754;47.700;7.924;2023-05-14T05:53:17;91234.69;;;11.62
43292;BMP280;28754;47.700;7.924;2023-05-14T05:56:05;91231.88;;;11.64
43292;BMP280;28754;47.700;7.924;2023-05-14T05:58:52;91239.28;;;11.65
43292;BMP280;28754;47.700;7.924;2023-05-14T06:01:40;91225.44;;;11.66
43292;BMP280;28754;47.700;7.924;2023-05-14T06:04:29;91233.84;;;11.76
43292;BMP280;28754;47.700;7.924;2023-05-14T06:07:16;91234.69;;;11.95
43292;BMP280;28754;47.700;7.924;2023-05-14T06:10:03;91230.88;;;11.98
43292;BMP280;28754;47.700;7.924;2023-05-14T06:12:50;91236.69;;;12.03
43292;BMP280;28754;47.700;7.924;2023-05-14T06:15:37;91227.88;;;12.14
43292;BMP280;28754;47.700;7.924;2023-05-14T06:18:24;91219.16;;;12.15
43292;BMP280;28754;47.700;7.924;2023-05-14T06:21:11;91227.38;;;12.17
43292;BMP280;28754;47.700;7.924;2023-05-14T06:23:59;91220.25;;;12.09
43292;BMP280;28754;47.700;7.924;2023-05-14T06:26:49;91235.84;;;12.12
43292;BMP280;28754;47.700;7.924;2023-05-14T06:29:37;91235.44;;;12.00
43292;BMP280;28754;47.700;7.924;2023-05-14T06:32:24;91236.19;;;12.01
43292;BMP280;28754;47.700;7.924;2023-05-14T06:35:11;91244.41;;;12.03
43292;BMP280;28754;47.700;7.924;2023-05-14T06:38:01;91235.44;;;12.00
43292;BMP280;28754;47.700;7.924;2023-05-14T06:40:49;91232.13;;;12.00
43292;BMP280;28754;47.700;7.924;2023-05-14T06:43:36;91226.75;;;11.97
43292;BMP280;28754;47.700;7.924;2023-05-14T06:46:23;91233.69;;;11.96
43292;BMP280;28754;47.700;7.924;2023-05-14T06:49:10;91237.25;;;12.00
43292;BMP280;28754;47.700;7.924;2023-05-14T06:51:56;91241.84;;;12.03
43292;BMP280;28754;47.700;7.924;2023-05-14T06:54:43;91228.44;;;12.11
43292;BMP280;28754;47.700;7.924;2023-05-14T06:57:30;91232.97;;;12.19
43292;BMP280;28754;47.700;7.924;2023-05-14T07:00:17;91231.91;;;12.25
43292;BMP280;28754;47.700;7.924;2023-05-14T07:03:04;91230.84;;;12.31
43292;BMP280;28754;47.700;7.924;2023-05-14T07:05:50;91225.63;;;12.40
43292;BMP280;28754;47.700;7.924;2023-05-14T07:08:37;91228.63;;;12.47
43292;BMP280;28754;47.700;7.924;2023-05-14T07:11:59;91230.13;;;12.53
43292;BMP280;28754;47.700;7.924;2023-05-14T07:15:34;91230.00;;;12.63
43292;BMP280;28754;47.700;7.924;2023-05-14T07:22:06;91222.56;;;12.90
43292;BMP280;28754;47.700;7.924;2023-05-14T07:25:02;91225.84;;;12.95
43292;BMP280;28754;47.700;7.924;2023-05-14T07:28:53;91228.50;;;13.08
43292;BMP280;28754;47.700;7.924;2023-05-14T07:36:21;91222.16;;;13.01
43292;BMP280;28754;47.700;7.924;2023-05-14T07:39:59;91218.28;;;13.03
43292;BMP280;28754;47.700;7.924;2023-05-14T07:44:11;91204.41;;;13.04
43292;BMP280;28754;47.700;7.924;2023-05-14T07:56:57;91214.84;;;13.31
43292;BMP280;28754;47.700;7.924;2023-05-14T08:32:28;91221.31;;;12.59
43292;BMP280;28754;47.700;7.924;2023-05-14T08:36:36;91225.88;;;12.39
43292;BMP280;28754;47.700;7.924;2023-05-14T09:23:31;91214.13;;;14.04
43292;BMP280;28754;47.700;7.924;2023-05-14T09:26:31;91195.94;;;13.95
43292;BMP280;28754;47.700;7.924;2023-05-14T09:29:34;91196.72;;;13.77
43292;BMP280;28754;47.700;7.924;2023-05-14T09:32:21;91199.72;;;13.66
43292;BMP280;28754;47.700;7.924;2023-05-14T09:35:20;91200.63;;;13.57
43292;BMP280;28754;47.700;7.924;2023-05-14T09:38:10;91202.06;;;13.44
43292;BMP280;28754;47.700;7.924;2023-05-14T09:41:00;91196.28;;;13.34
43292;BMP280;28754;47.700;7.924;2023-05-14T09:43:52;91201.59;;;13.24
43292;BMP280;28754;47.700;7.924;2023-05-14T09:46:52;91202.59;;;13.05
43292;BMP280;28754;47.700;7.924;2023-05-14T09:49:42;91200.47;;;12.89
43292;BMP280;28754;47.700;7.924;2023-05-14T09:52:29;91189.31;;;12.75
43292;BMP280;28754;47.700;7.924;2023-05-14T09:55:16;91208.44;;;12.64
43292;BMP280;28754;47.700;7.924;2023-05-14T09:58:09;91205.94;;;12.54
43292;BMP280;28754;47.700;7.924;2023-05-14T10:01:18;91209.28;;;12.55
43292;BMP280;28754;47.700;7.924;2023-05-14T10:04:07;91207.50;;;12.55
43292;BMP280;28754;47.700;7.924;2023-05-14T10:06:58;91202.88;;;12.52
43292;BMP280;28754;47.700;7.924;2023-05-14T10:10:26;91196.06;;;12.43
43292;BMP280;28754;47.700;7.924;2023-05-14T10:17:58;91188.19;;;12.34
43292;BMP280;28754;47.700;7.924;2023-05-14T10:21:19;91196.19;;;12.28
43292;BMP280;28754;47.700;7.924;2023-05-14T10:24:08;91188.44;;;12.33
43292;BMP280;28754;47.700;7.924;2023-05-14T10:26:56;91193.84;;;12.32
43292;BMP280;28754;47.700;7.924;2023-05-14T10:29:51;91195.16;;;12.29
43292;BMP280;28754;47.700;7.924;2023-05-14T10:32:41;91191.44;;;12.40
43292;BMP280;28754;47.700;7.924;2023-05-14T10:35:29;91194.16;;;12.53
43292;BMP280;28754;47.700;7.924;2023-05-14T10:38:21;91196.09;;;12.66
43292;BMP280;28754;47.700;7.924;2023-05-14T10:41:13;91181.09;;;12.73
43292;BMP280;28754;47.700;7.924;2023-05-14T10:44:07;91185.13;;;12.84
43292;BMP280;28754;47.700;7.924;2023-05-14T10:46:55;91191.72;;;12.90
43292;BMP280;28754;47.700;7.924;2023-05-14T10:49:43;91191.09;;;12.98
43292;BMP280;28754;47.700;7.924;2023-05-14T10:52:32;91179.22;;;13.02
43292;BMP280;28754;47.700;7.924;2023-05-14T10:55:20;91179.16;;;13.06
43292;BMP280;28754;47.700;7.924;2023-05-14T10:58:09;91173.56;;;13.04
43292;BMP280;28754;47.700;7.924;2023-05-14T11:00:56;91176.19;;;13.00
43292;BMP280;28754;47.700;7.924;2023-05-14T11:03:45;91179.38;;;12.92
43292;BMP280;28754;47.700;7.924;2023-05-14T11:06:32;91182.53;;;12.84
43292;BMP280;28754;47.700;7.924;2023-05-14T11:09:20;91180.03;;;12.74
43292;BMP280;28754;47.700;7.924;2023-05-14T11:12:08;91174.47;;;12.67
43292;BMP280;28754;47.700;7.924;2023-05-14T11:15:00;91185.03;;;12.66
43292;BMP280;28754;47.700;7.924;2023-05-14T11:17:49;91181.44;;;12.67
43292;BMP280;28754;47.700;7.924;2023-05-14T11:20:36;91184.19;;;12.70
43292;BMP280;28754;47.700;7.924;2023-05-14T11:23:23;91184.16;;;12.75
43292;BMP280;28754;47.700;7.924;2023-05-14T11:26:12;91187.69;;;12.84
43292;BMP280;28754;47.700;7.924;2023-05-14T11:28:59;91174.69;;;12.94
43292;BMP280;28754;47.700;7.924;2023-05-14T11:31:45;91168.19;;;13.01
43292;BMP280;28754;47.700;7.924;2023-05-14T11:34:33;91176.94;;;13.00
43292;BMP280;28754;47.700;7.924;2023-05-14T11:37:21;91169.78;;;12.97
43292;BMP280;28754;47.700;7.924;2023-05-14T11:40:14;91169.28;;;12.95
43292;BMP280;28754;47.700;7.924;2023-05-14T11:43:02;91165.41;;;12.98
43292;BMP280;28754;47.700;7.924;2023-05-14T11:45:53;91160.75;;;13.00
43292;BMP280;28754;47.700;7.924;2023-05-14T11:48:40;91161.13;;;13.11
43292;BMP280;28754;47.700;7.924;2023-05-14T11:51:28;91154.25;;;13.25
43292;BMP280;28754;47.700;7.924;2023-05-14T11:54:14;91147.94;;;13.54
43292;BMP280;28754;47.700;7.924;2023-05-14T11:57:10;91158.00;;;13.69
43292;BMP280;28754;47.700;7.924;2023-05-14T11:59:57;91149.44;;;13.73
43292;BMP280;28754;47.700;7.924;2023-05-14T12:02:44;91145.94;;;13.83
43292;BMP280;28754;47.700;7.924;2023-05-14T12:05:36;91148.06;;;13.94
43292;BMP280;28754;47.700;7.924;2023-05-14T12:08:29;91146.72;;;14.15
43292;BMP280;28754;47.700;7.924;2023-05-14T12:11:20;91146.84;;;14.37
43292;BMP280;28754;47.700;7.924;2023-05-14T12:14:14;91132.25;;;14.45
43292;BMP280;28754;47.700;7.924;2023-05-14T12:17:01;91128.75;;;14.42
43292;BMP280;28754;47.700;7.924;2023-05-14T12:19:50;91133.31;;;14.31
43292;BMP280;28754;47.700;7.924;2023-05-14T12:22:37;91137.88;;;14.21
43292;BMP280;28754;47.700;7.924;2023-05-14T12:25:24;91132.72;;;14.21
43292;BMP280;28754;47.700;7.924;2023-05-14T12:28:15;91138.53;;;14.26
43292;BMP280;28754;47.700;7.924;2023-05-14T12:31:05;91126.06;;;14.33
43292;BMP280;28754;47.700;7.924;2023-05-14T12:33:52;91135.69;;;14.28
43292;BMP280;28754;47.700;7.924;2023-05-14T12:36:39;91130.78;;;14.00
43292;BMP280;28754;47.700;7.924;2023-05-14T12:39:26;91149.66;;;13.59
43292;BMP280;28754;47.700;7.924;2023-05-14T12:42:16;91152.72;;;13.24
43292;BMP280;28754;47.700;7.924;2023-05-14T12:45:03;91155.56;;;13.04
43292;BMP280;28754;47.700;7.924;2023-05-14T12:47:53;91153.13;;;12.95
43292;BMP280;28754;47.700;7.924;2023-05-14T12:50:40;91147.00;;;12.91
43292;BMP280;28754;47.700;7.924;2023-05-14T12:53:27;91138.88;;;12.84
43292;BMP280;28754;47.700;7.924;2023-05-14T12:56:14;91135.34;;;12.75
43292;BMP280;28754;47.700;7.924;2023-05-14T12:59:01;91141.22;;;12.80
43292;BMP280;28754;47.700;7.924;2023-05-14T13:01:48;91129.84;;;12.86
43292;BMP280;28754;47.700;7.924;2023-05-14T13:04:34;91135.19;;;12.90
43292;BMP280;28754;47.700;7.924;2023-05-14T13:07:21;91137.69;;;12.95
43292;BMP280;28754;47.700;7.924;2023-05-14T13:10:08;91154.09;;;12.99
43292;BMP280;28754;47.700;7.924;2023-05-14T13:12:55;91166.53;;;13.10
43292;BMP280;28754;47.700;7.924;2023-05-14T13:15:42;91162.13;;;13.15
43292;BMP280;28754;47.700;7.924;2023-05-14T13:18:29;91155.22;;;13.11
43292;BMP280;28754;47.700;7.924;2023-05-14T13:21:16;91152.50;;;13.03
43292;BMP280;28754;47.700;7.924;2023-05-14T13:24:02;91149.72;;;12.99
43292;BMP280;28754;47.700;7.924;2023-05-14T13:26:49;91146.88;;;13.01
43292;BMP280;28754;47.700;7.924;2023-05-14T13:29:36;91135.81;;;13.00
43292;BMP280;28754;47.700;7.924;2023-05-14T13:32:24;91138.59;;;13.03
43292;BMP280;28754;47.700;7.924;2023-05-14T13:35:17;91132.44;;;13.04
43292;BMP280;28754;47.700;7.924;2023-05-14T13:38:04;91135.97;;;13.08
43292;BMP280;28754;47.700;7.924;2023-05-14T13:40:50;91129.22;;;13.12
43292;BMP280;28754;47.700;7.924;2023-05-14T13:43:37;91121.53;;;13.12
43292;BMP280;28754;47.700;7.924;2023-05-14T13:46:24;91117.44;;;13.11
43292;BMP280;28754;47.700;7.924;2023-05-14T13:49:10;91116.31;;;13.17
43292;BMP280;28754;47.700;7.924;2023-05-14T13:51:57;91122.91;;;13.23
43292;BMP280;28754;47.700;7.924;2023-05-14T13:54:44;91118.75;;;13.27
43292;BMP280;28754;47.700;7.924;2023-05-14T13:57:31;91110.69;;;13.34
43292;BMP280;28754;47.700;7.924;2023-05-14T14:00:18;91104.66;;;13.43
43292;BMP280;28754;47.700;7.924;2023-05-14T14:03:06;91104.47;;;13.53
43292;BMP280;28754;47.700;7.924;2023-05-14T14:05:53;91097.09;;;13.65
43292;BMP280;28754;47.700;7.924;2023-05-14T14:08:40;91100.94;;;13.80
43292;BMP280;28754;47.700;7.924;2023-05-14T14:11:27;91091.66;;;13.98
43292;BMP280;28754;47.700;7.924;2023-05-14T14:14:15;91089.97;;;14.07
43292;BMP280;28754;47.700;7.924;2023-05-14T14:17:02;91082.84;;;14.17
43292;BMP280;28754;47.700;7.924;2023-05-14T14:19:49;91076.44;;;14.28
43292;BMP280;28754;47.700;7.924;2023-05-14T14:22:35;91075.53;;;14.50
43292;BMP280;28754;47.700;7.924;2023-05-14T14:25:22;91078.16;;;14.72
43292;BMP280;28754;47.700;7.924;2023-05-14T14:28:09;91083.88;;;14.96
43292;BMP280;28754;47.700;7.924;2023-05-14T14:30:56;91072.59;;;15.18
43292;BMP280;28754;47.700;7.924;2023-05-14T14:33:42;91079.00;;;15.43
43292;BMP280;28754;47.700;7.924;2023-05-14T14:36:29;91080.81;;;15.64
43292;BMP280;28754;47.700;7.924;2023-05-14T14:39:17;91080.81;;;15.85
43292;BMP280;28754;47.700;7.924;2023-05-14T14:42:04;91072.41;;;16.02
43292;BMP280;28754;47.700;7.924;2023-05-14T14:44:51;91081.88;;;16.06
43292;BMP280;28754;47.700;7.924;2023-05-14T14:47:42;91065.00;;;16.09
43292;BMP280;28754;47.700;7.924;2023-05-14T14:50:29;91058.38;;;16.16
43292;BMP280;28754;47.700;7.924;2023-05-14T14:53:16;91064.22;;;16.30
43292;BMP280;28754;47.700;7.924;2023-05-14T14:56:03;91060.91;;;16.38
43292;BMP280;28754;47.700;7.924;2023-05-14T14:58:50;91075.34;;;16.39
43292;BMP280;28754;47.700;7.924;2023-05-14T15:01:37;91058.47;;;16.33
43292;BMP280;28754;47.700;7.924;2023-05-14T15:04:24;91062.75;;;16.46
43292;BMP280;28754;47.700;7.924;2023-05-14T15:07:11;91053.19;;;16.46
43292;BMP280;28754;47.700;7.924;2023-05-14T15:09:58;91065.81;;;16.48
43292;BMP280;28754;47.700;7.924;2023-05-14T15:12:44;91066.84;;;16.38
43292;BMP280;28754;47.700;7.924;2023-05-14T15:15:34;91066.22;;;16.33
43292;BMP280;28754;47.700;7.924;2023-05-14T15:18:57;91059.41;;;16.15
43292;BMP280;28754;47.700;7.924;2023-05-14T15:21:44;91056.94;;;16.10
43292;BMP280;28754;47.700;7.924;2023-05-14T15:24:31;91063.00;;;16.06
43292;BMP280;28754;47.700;7.924;2023-05-14T15:27:18;91049.94;;;16.02
43292;BMP280;28754;47.700;7.924;2023-05-14T15:30:06;91053.56;;;16.01
43292;BMP280;28754;47.700;7.924;2023-05-14T15:32:53;91062.66;;;15.99
43292;BMP280;28754;47.700;7.924;2023-05-14T15:35:49;91055.19;;;15.97
43292;BMP280;28754;47.700;7.924;2023-05-14T15:38:42;91046.47;;;16.07
43292;BMP280;28754;47.700;7.924;2023-05-14T15:41:36;91042.31;;;16.19
43292;BMP280;28754;47.700;7.924;2023-05-14T15:44:24;91055.25;;;16.27
43292;BMP280;28754;47.700;7.924;2023-05-14T15:47:11;91050.84;;;16.28
43292;BMP280;28754;47.700;7.924;2023-05-14T15:49:59;91055.88;;;16.33
43292;BMP280;28754;47.700;7.924;2023-05-14T15:52:47;91055.72;;;16.38
43292;BMP280;28754;47.700;7.924;2023-05-14T15:55:34;91054.69;;;16.39
43292;BMP280;28754;47.700;7.924;2023-05-14T15:58:21;91044.31;;;16.30
43292;BMP280;28754;47.700;7.924;2023-05-14T16:01:08;91052.50;;;16.24
43292;BMP280;28754;47.700;7.924;2023-05-14T16:03:54;91040.75;;;16.18
43292;BMP280;28754;47.700;7.924;2023-05-14T16:06:41;91044.41;;;16.17
43292;BMP280;28754;47.700;7.924;2023-05-14T16:09:31;91043.63;;;16.16
43292;BMP280;28754;47.700;7.924;2023-05-14T16:12:18;91051.66;;;16.15
43292;BMP280;28754;47.700;7.924;2023-05-14T16:15:06;91042.81;;;16.08
43292;BMP280;28754;47.700;7.924;2023-05-14T16:17:53;91053.59;;;16.10
43292;BMP280;28754;47.700;7.924;2023-05-14T16:20:51;91060.84;;;15.99
43292;BMP280;28754;47.700;7.924;2023-05-14T16:23:44;91055.47;;;15.87
43292;BMP280;28754;47.700;7.924;2023-05-14T16:26:34;91061.00;;;15.73
43292;BMP280;28754;47.700;7.924;2023-05-14T16:29:21;91066.50;;;15.58
43292;BMP280;28754;47.700;7.924;2023-05-14T16:32:08;91082.00;;;15.58
43292;BMP280;28754;47.700;7.924;2023-05-14T16:34:54;91085.66;;;15.57
43292;BMP280;28754;47.700;7.924;2023-05-14T16:37:42;91083.88;;;15.44
43292;BMP280;28754;47.700;7.924;2023-05-14T16:40:28;91107.50;;;15.38
43292;BMP280;28754;47.700;7.924;2023-05-14T16:43:16;91099.09;;;15.32
43292;BMP280;28754;47.700;7.924;2023-05-14T16:46:03;91103.91;;;15.25
43292;BMP280;28754;47.700;7.924;2023-05-14T16:49:03;91104.19;;;15.10
43292;BMP280;28754;47.700;7.924;2023-05-14T16:51:57;91109.94;;;15.08
43292;BMP280;28754;47.700;7.924;2023-05-14T16:54:47;91106.09;;;15.05
43292;BMP280;28754;47.700;7.924;2023-05-14T16:57:34;91094.53;;;15.03
43292;BMP280;28754;47.700;7.924;2023-05-14T17:00:21;91106.41;;;15.04
43292;BMP280;28754;47.700;7.924;2023-05-14T17:03:08;91103.81;;;15.04
43292;BMP280;28754;47.700;7.924;2023-05-14T17:06:07;91095.69;;;14.97
43292;BMP280;28754;47.700;7.924;2023-05-14T17:08:57;91099.25;;;14.87
43292;BMP280;28754;47.700;7.924;2023-05-14T17:11:44;91107.19;;;14.91
43292;BMP280;28754;47.700;7.924;2023-05-14T17:14:34;91111.94;;;14.84
43292;BMP280;28754;47.700;7.924;2023-05-14T17:17:21;91089.44;;;14.76
43292;BMP280;28754;47.700;7.924;2023-05-14T17:20:16;91100.69;;;14.80
43292;BMP280;28754;47.700;7.924;2023-05-14T17:23:27;91099.06;;;14.71
43292;BMP280;28754;47.700;7.924;2023-05-14T17:26:18;91090.97;;;14.64
43292;BMP280;28754;47.700;7.924;2023-05-14T17:29:11;91092.31;;;14.61
43292;BMP280;28754;47.700;7.924;2023-05-14T17:32:00;91093.53;;;14.64
43292;BMP280;28754;47.700;7.924;2023-05-14T17:35:00;91104.88;;;14.49
43292;BMP280;28754;47.700;7.924;2023-05-14T17:37:47;91098.59;;;14.42
43292;BMP280;28754;47.700;7.924;2023-05-14T17:40:34;91107.75;;;14.35
43292;BMP280;28754;47.700;7.924;2023-05-14T17:43:21;91107.94;;;14.25
43292;BMP280;28754;47.700;7.924;2023-05-14T17:46:08;91113.63;;;14.22
43292;BMP280;28754;47.700;7.924;2023-05-14T17:49:21;91125.47;;;14.23
43292;BMP280;28754;47.700;7.924;2023-05-14T17:53:25;91119.00;;;14.25
43292;BMP280;28754;47.700;7.924;2023-05-14T18:00:39;91130.16;;;14.21
43292;BMP280;28754;47.700;7.924;2023-05-14T18:03:39;91132.72;;;14.21
43292;BMP280;28754;47.700;7.924;2023-05-14T18:07:03;91138.34;;;14.23
43292;BMP280;28754;47.700;7.924;2023-05-14T18:10:00;91137.22;;;14.29